Time;durP1;ratioP1;P1;durP2;ratioP2;P2;SDS_P1;SDS_P2;PMS_P1;PMS_P2;Temp;Humidity;BMP_temperature;BMP_pressure;BME280_temperature;BME280_humidity;BME280_pressure;Samples;Min_cycle;Max_cycle;Signal;HPM_P1;HPM_P2
2022/09/26 00:03:33;;;;;;;4.47;1.38;;;;;;;9.34;100.00;100564.91;12989280;22;20065;-85
2022/09/26 00:08:35;;;;;;;5.38;1.20;;;;;;;8.64;100.00;100388.81;12989365;22;20086;-89
2022/09/26 00:13:37;;;;;;;4.50;1.40;;;;;;;9.42;100.00;100561.72;12989487;22;20010;-89
2022/09/26 00:18:38;;;;;;;4.00;1.13;;;;;;;9.47;100.00;100545.31;12989483;22;20026;-89
2022/09/26 00:23:40;;;;;;;9.18;3.03;;;;;;;9.08;100.00;100435.50;12989199;22;20101;-88
2022/09/26 00:28:41;;;;;;;8.52;2.80;;;;;;;9.50;100.00;100550.28;12989089;22;20018;-85
2022/09/26 00:33:41;;;;;;;6.20;2.95;;;;;;;9.42;100.00;100500.44;12974751;22;20018;-85
2022/09/26 00:38:42;;;;;;;8.27;2.65;;;;;;;9.18;100.00;100459.50;12990034;22;20019;-88
2022/09/26 00:43:47;;;;;;;6.22;2.55;;;;;;;8.89;100.00;100382.00;12974974;22;20003;-88
2022/09/26 00:48:52;;;;;;;6.15;2.80;;;;;;;8.26;100.00;100308.13;12989303;22;20337;-89
2022/09/26 00:53:53;;;;;;;3.13;2.70;;;;;;;9.28;100.00;100461.53;12987852;22;20010;-89
2022/09/26 00:58:57;;;;;;;4.45;2.60;;;;;;;9.82;100.00;100533.09;12987413;22;20029;-89
2022/09/26 01:03:58;;;;;;;6.60;2.90;;;;;;;8.52;100.00;100326.91;12991786;22;20008;-85
2022/09/26 01:09:00;;;;;;;5.72;3.17;;;;;;;8.71;100.00;100344.69;13016753;22;20033;-89
2022/09/26 01:14:01;;;;;;;6.35;3.00;;;;;;;8.65;100.00;100304.56;12990777;22;20007;-85
2022/09/26 01:19:03;;;;;;;4.30;2.65;;;;;;;8.17;100.00;100243.84;12989040;22;21329;-85
2022/09/26 01:24:45;;;;;;;5.97;2.60;;;;;;;9.25;100.00;100396.13;13002695;22;20046;-85
2022/09/26 01:30:14;;;;;;;5.38;2.75;;;;;;;9.16;100.00;100408.69;13000448;22;20003;-85
2022/09/26 01:35:51;;;;;;;5.35;2.95;;;;;;;9.45;100.00;100445.81;13002210;22;20034;-90
2022/09/26 01:41:10;;;;;;;6.82;3.00;;;;;;;9.82;100.00;100491.03;13040316;22;20011;-87
2022/09/26 01:46:29;;;;;;;5.15;3.60;;;;;;;7.71;100.00;100184.81;13035982;22;20011;-87
2022/09/26 01:52:08;;;;;;;6.38;2.28;;;;;;;9.89;100.00;100472.41;13014214;22;20011;-85
2022/09/26 01:57:15;;;;;;;5.57;2.08;;;;;;;8.36;100.00;100254.50;13039500;22;20453;-88
2022/09/26 02:02:24;;;;;;;11.27;2.05;;;;;;;8.37;100.00;100246.03;12993933;22;20082;-88
2022/09/26 02:07:53;;;;;;;8.02;2.05;;;;;;;10.01;100.00;100453.00;12994094;22;20000;-88
2022/09/26 02:12:58;;;;;;;3.72;1.92;;;;;;;9.09;100.00;100275.16;13016134;22;20060;-85
2022/09/26 02:18:29;;;;;;;7.65;2.00;;;;;;;9.77;100.00;100398.31;12987027;22;20030;-85
2022/09/26 02:23:30;;;;;;;4.80;2.00;;;;;;;8.94;100.00;100250.25;12960719;22;20003;-87
2022/09/26 02:28:31;;;;;;;3.53;1.77;;;;;;;8.82;100.00;100211.97;12991177;22;20003;-90
2022/09/26 02:33:31;;;;;;;4.32;1.80;;;;;;;9.18;100.00;100267.25;12991295;22;20015;-89
2022/09/26 02:38:33;;;;;;;6.97;2.40;;;;;;;9.04;100.00;100213.84;12992725;22;20362;-89
2022/09/26 02:43:40;;;;;;;4.68;2.33;;;;;;;10.22;100.00;100386.03;12993503;22;20078;-88
2022/09/26 02:48:57;;;;;;;8.05;2.65;;;;;;;10.24;100.00;100374.78;13020725;22;20007;-86
2022/09/26 02:54:07;;;;;;;8.35;2.60;;;;;;;9.30;100.00;100253.34;13017940;22;20026;-89
2022/09/26 02:59:19;;;;;;;5.43;2.80;;;;;;;9.64;100.00;100284.16;12993049;22;20434;-86
2022/09/26 03:04:19;;;;;;;9.43;4.38;;;;;;;9.52;100.00;100238.69;13045574;22;20027;-89
2022/09/26 03:09:20;;;;;;;6.43;3.40;;;;;;;8.79;100.00;100179.56;13027084;22;20333;-86
2022/09/26 03:14:21;;;;;;;13.40;4.10;;;;;;;9.59;100.00;100292.34;12991775;22;20007;-88
2022/09/26 03:19:41;;;;;;;9.48;4.43;;;;;;;7.76;100.00;99968.44;12914811;22;20441;-86
2022/09/26 03:24:41;;;;;;;9.27;4.40;;;;;;;8.81;100.00;100162.84;12906518;22;20034;-88
2022/09/26 03:29:42;;;;;;;7.75;4.25;;;;;;;8.26;100.00;100075.03;12907508;22;20014;-85
2022/09/26 03:34:43;;;;;;;10.07;5.45;;;;;;;8.51;100.00;100087.38;12926881;22;20011;-86
2022/09/26 03:39:44;;;;;;;6.20;4.57;;;;;;;8.89;100.00;100122.03;12884992;22;20020;-87
2022/09/26 03:44:45;;;;;;;9.02;5.07;;;;;;;8.35;100.00;100060.84;12920811;22;20019;-86
2022/09/26 03:49:45;;;;;;;12.38;5.28;;;;;;;8.71;100.00;100118.84;12948656;22;20010;-85
2022/09/26 03:54:46;;;;;;;9.75;5.47;;;;;;;8.16;100.00;100028.31;12894653;22;20034;-84
2022/09/26 03:59:47;;;;;;;11.63;5.57;;;;;;;8.50;100.00;100066.53;12946755;22;20015;-86
2022/09/26 04:04:48;;;;;;;12.48;5.55;;;;;;;9.17;100.00;100160.41;12896951;22;20007;-86
2022/09/26 04:09:49;;;;;;;9.23;6.18;;;;;;;9.20;100.00;100157.97;12947603;22;20014;-86
2022/09/26 04:14:49;;;;;;;11.75;5.97;;;;;;;8.47;100.00;100056.06;12886043;22;20004;-86
2022/09/26 04:19:50;;;;;;;12.98;6.65;;;;;;;9.03;100.00;100105.94;12765430;22;20079;-87
2022/09/26 04:24:52;;;;;;;13.90;7.38;;;;;;;7.78;100.00;99895.03;12795508;22;20033;-86
2022/09/26 04:29:52;;;;;;;11.32;7.55;;;;;;;7.48;100.00;99880.78;12785504;22;20021;-86
2022/09/26 04:34:53;;;;;;;17.60;8.48;;;;;;;8.26;100.00;99962.59;12759113;22;20008;-87
2022/09/26 04:39:55;;;;;;;13.15;7.70;;;;;;;8.16;100.00;99962.50;12795540;22;20429;-86
2022/09/26 04:44:56;;;;;;;13.48;7.80;;;;;;;8.36;100.00;100000.25;12769021;22;20496;-88
2022/09/26 04:49:56;;;;;;;14.30;8.55;;;;;;;7.84;100.00;99883.84;12817110;22;19998;-86
2022/09/26 04:54:57;;;;;;;15.00;9.02;;;;;;;8.60;100.00;99984.31;12820108;22;20005;-86
2022/09/26 04:59:57;;;;;;;12.25;8.95;;;;;;;8.00;100.00;99903.16;12794446;22;20013;-86
2022/09/26 05:04:58;;;;;;;16.02;9.75;;;;;;;8.38;100.00;99956.94;12687794;22;20067;-87
2022/09/26 05:09:59;;;;;;;17.33;10.15;;;;;;;9.06;100.00;100061.47;12796862;22;20008;-86
2022/09/26 05:15:00;;;;;;;14.35;9.73;;;;;;;8.90;100.00;99988.34;12794806;22;20016;-88
2022/09/26 05:20:07;;;;;;;12.63;9.18;;;;;;;8.37;100.00;99930.63;12788994;22;20071;-88
2022/09/26 05:30:30;;;;;;;19.27;10.27;;;;;;;8.67;100.00;99930.00;12665553;22;20428;-86
2022/09/26 05:35:33;;;;;;;15.27;9.82;;;;;;;8.12;100.00;99840.75;12781631;22;20009;-88
2022/09/26 05:45:59;;;;;;;13.93;10.13;;;;;;;8.35;100.00;99866.13;12923235;22;20017;-89
2022/09/26 05:51:13;;;;;;;15.90;9.68;;;;;;;8.88;100.00;99928.22;12759327;22;20080;-87
2022/09/26 05:56:14;;;;;;;14.40;9.93;;;;;;;8.83;100.00;99908.16;12799773;22;20093;-89
2022/09/26 06:01:15;;;;;;;17.15;10.23;;;;;;;8.92;100.00;99944.97;12805615;22;20005;-89
2022/09/26 06:06:17;;;;;;;17.10;12.15;;;;;;;8.56;100.00;99906.38;12758135;22;20009;-87
2022/09/26 06:11:21;;;;;;;15.80;9.65;;;;;;;8.97;100.00;99939.53;12782613;22;20075;-88
2022/09/26 06:16:21;;;;;;;16.38;9.32;;;;;;;7.83;100.00;99756.16;12720084;22;20037;-87
2022/09/26 06:21:22;;;;;;;15.73;10.05;;;;;;;7.96;100.00;99754.88;12758574;22;20009;-87
2022/09/26 06:26:24;;;;;;;13.98;9.70;;;;;;;9.10;100.00;99905.28;12760602;22;20016;-85
2022/09/26 06:31:24;;;;;;;16.83;9.00;;;;;;;9.25;100.00;99931.97;12767508;22;20002;-85
2022/09/26 06:36:25;;;;;;;17.23;8.77;;;;;;;8.65;100.00;99805.16;12773571;22;20013;-85
2022/09/26 06:41:26;;;;;;;15.70;8.82;;;;;;;8.03;100.00;99716.25;12773152;22;20006;-88
2022/09/26 06:46:26;;;;;;;11.52;8.10;;;;;;;7.99;100.00;99695.94;12783486;22;20005;-88
2022/09/26 06:51:27;;;;;;;14.48;8.63;;;;;;;8.97;100.00;99806.91;12759427;22;20055;-88
2022/09/26 06:56:27;;;;;;;14.80;7.68;;;;;;;9.39;100.00;99891.91;12759100;22;20394;-86
2022/09/26 07:01:28;;;;;;;12.73;7.93;;;;;;;8.85;100.00;99766.00;12759197;22;20021;-88
2022/09/26 07:06:29;;;;;;;14.52;7.55;;;;;;;9.27;100.00;99837.22;12646101;22;20005;-87
2022/09/26 07:11:29;;;;;;;13.90;6.68;;;;;;;7.99;100.00;99610.97;12749489;22;20022;-86
2022/09/26 07:16:30;;;;;;;9.60;6.55;;;;;;;8.15;100.00;99656.56;12772798;22;20061;-86
2022/09/26 07:21:30;;;;;;;10.85;6.15;;;;;;;8.94;100.00;99802.78;12772747;22;20017;-86
2022/09/26 07:26:31;;;;;;;12.93;6.78;;;;;;;8.28;100.00;99690.88;12657183;22;20012;-87
2022/09/26 07:31:31;;;;;;;13.57;5.90;;;;;;;9.01;100.00;99813.50;12751295;22;20009;-86
2022/09/26 07:36:32;;;;;;;9.40;5.65;;;;;;;8.91;100.00;99808.84;12777940;22;22438;-88
2022/09/26 07:41:32;;;;;;;11.65;5.45;;;;;;;8.40;100.00;99671.44;12762081;22;20046;-88
2022/09/26 07:51:55;;;;;;;20.08;5.93;;;;;;;8.98;100.00;99795.66;12796269;22;20085;-89
2022/09/26 07:56:56;;;;;;;8.48;4.95;;;;;;;8.47;100.00;99670.13;12842862;22;20026;-90
2022/09/26 08:01:56;;;;;;;11.38;5.93;;;;;;;8.69;100.00;99697.34;12780241;22;20013;-89
2022/09/26 08:06:58;;;;;;;10.40;5.18;;;;;;;8.55;100.00;99641.34;12846628;22;20011;-88
2022/09/26 08:11:59;;;;;;;7.22;4.65;;;;;;;8.26;100.00;99622.56;12777218;22;20085;-87
2022/09/26 08:16:59;;;;;;;7.90;4.78;;;;;;;8.35;100.00;99597.38;12761348;22;20014;-88
2022/09/26 08:22:00;;;;;;;8.52;5.03;;;;;;;9.12;100.00;99732.84;12780112;22;20470;-88
2022/09/26 08:27:00;;;;;;;7.30;4.05;;;;;;;8.56;100.00;99648.47;12779870;22;20146;-88
2022/09/26 08:32:02;;;;;;;12.15;4.25;;;;;;;8.64;100.00;99634.22;12808225;22;20000;-89
2022/09/26 08:37:26;;;;;;;9.13;4.85;;;;;;;10.36;100.00;99840.84;12788358;22;20026;-89
2022/09/26 08:42:57;;;;;;;13.02;4.97;;;;;;;9.67;100.00;99700.97;12793549;22;20017;-91
2022/09/26 08:48:20;;;;;;;7.10;3.65;;;;;;;10.58;100.00;99824.81;12814101;22;20006;-88
2022/09/26 08:53:23;;;;;;;8.75;3.90;;;;;;;9.86;100.00;99752.59;12879027;22;20083;-88
2022/09/26 08:58:51;;;;;;;9.63;4.38;;;;;;;10.45;100.00;99809.72;12667815;22;20446;-88
2022/09/26 09:03:56;;;;;;;6.85;4.43;;;;;;;8.64;100.00;99504.44;12765549;22;20012;-89
2022/09/26 09:08:57;;;;;;;6.78;4.40;;;;;;;9.83;100.00;99699.00;12804072;22;20006;-88
2022/09/26 09:14:14;;;;;;;5.63;3.50;;;;;;;9.39;100.00;99644.69;12778682;22;20491;-88
2022/09/26 09:19:41;;;;;;;10.82;4.53;;;;;;;9.71;100.00;99646.25;12757351;22;20017;-87
2022/09/26 09:25:02;;;;;;;5.95;3.25;;;;;;;10.18;100.00;99669.75;12754321;22;20018;-85
2022/09/26 09:30:25;;;;;;;8.40;4.22;;;;;;;8.98;100.00;99488.22;12708482;22;20158;-87
2022/09/26 09:35:53;;;;;;;12.00;4.18;;;;;;;10.00;100.00;99621.69;12640675;22;20093;-89
2022/09/26 09:41:08;;;;;;;10.75;4.63;;;;;;;10.13;100.00;99601.03;12750493;22;20021;-89
2022/09/26 09:46:28;;;;;;;5.63;2.75;;;;;;;9.92;100.00;99559.03;12765738;22;20014;-89
2022/09/26 09:51:40;;;;;;;8.85;3.22;;;;;;;11.15;100.00;99734.50;12615816;22;20013;-88
2022/09/26 09:56:44;;;;;;;6.57;3.45;;;;;;;11.18;100.00;99746.88;12888329;22;20333;-88
2022/09/26 10:01:46;;;;;;;7.57;3.60;;;;;;;9.13;100.00;99442.63;12876348;22;20000;-87
2022/09/26 10:06:47;;;;;;;10.40;4.30;;;;;;;9.36;100.00;99469.41;12786415;22;20082;-90
2022/09/26 10:11:47;;;;;;;6.40;3.50;;;;;;;9.62;100.00;99518.78;12844046;22;20358;-88
2022/09/26 10:17:09;;;;;;;14.38;4.68;;;;;;;11.12;100.00;99713.06;12763338;22;20448;-88
2022/09/26 10:22:36;;;;;;;11.52;4.20;;;;;;;10.37;100.00;99641.63;12881408;22;20085;-88
2022/09/26 10:27:38;;;;;;;6.90;4.00;;;;;;;8.98;100.00;99375.69;12816267;22;20015;-89
2022/09/26 10:32:55;;;;;;;11.93;4.05;;;;;;;10.08;100.00;99535.03;12803811;22;20009;-91
2022/09/26 10:37:59;;;;;;;12.13;4.72;;;;;;;8.72;100.00;99368.63;12718536;22;20023;-90
2022/09/26 10:43:31;;;;;;;9.90;4.35;;;;;;;10.91;100.00;99698.56;12805795;22;20003;-91
2022/09/26 10:48:51;;;;;;;7.88;4.43;;;;;;;9.80;100.00;99523.66;12803180;22;20010;-89
2022/09/26 10:53:57;;;;;;;11.07;4.70;;;;;;;9.81;100.00;99508.78;12786606;22;20033;-89
2022/09/26 10:59:00;;;;;;;14.05;4.70;;;;;;;10.47;100.00;99627.84;12747470;22;20341;-89
2022/09/26 11:09:50;;;;;;;10.48;6.18;;;;;;;9.58;100.00;99471.81;12886134;22;20248;-86
2022/09/26 11:14:56;;;;;;;9.77;5.10;;;;;;;9.49;100.00;99402.91;12787378;22;20010;-86
2022/09/26 11:19:59;;;;;;;6.75;4.35;;;;;;;9.97;100.00;99500.47;12815999;22;20016;-90
2022/09/26 11:25:24;;;;;;;10.02;5.25;;;;;;;11.03;100.00;99654.16;12777574;22;20025;-86
2022/09/26 11:30:26;;;;;;;8.30;4.63;;;;;;;11.05;100.00;99658.25;12823475;22;20369;-89
2022/09/26 11:35:45;;;;;;;9.45;4.45;;;;;;;11.06;100.00;99648.91;12870070;22;20014;-85
2022/09/26 11:41:35;;;;;;;8.13;4.90;;;;;;;11.03;100.00;99646.72;12710115;22;20026;-87
2022/09/26 11:47:02;;;;;;;10.15;4.95;;;;;;;10.13;100.00;99512.19;12816047;22;20014;-88
2022/09/26 11:52:03;;;;;;;;;;;;;;;11.05;100.00;99638.97;12863253;22;20003;-88
2022/09/26 11:57:41;;;;;;;10.77;5.60;;;;;;;10.95;100.00;99630.78;12863120;22;19996;-88
2022/09/26 12:03:13;;;;;;;9.05;6.28;;;;;;;10.94;100.00;99620.91;12731812;22;20044;-87
2022/09/26 12:08:52;;;;;;;9.48;7.22;;;;;;;10.97;100.00;99625.00;12791013;22;20005;-87
2022/09/26 12:13:59;;;;;;;8.18;5.72;;;;;;;10.89;100.00;99618.19;12802885;22;20379;-87
2022/09/26 12:19:18;;;;;;;10.70;6.60;;;;;;;10.93;100.00;99624.75;12935031;22;20454;-90
2022/09/26 12:24:26;;;;;;;9.80;6.25;;;;;;;9.39;100.00;99391.97;12914853;22;20011;-87
2022/09/26 12:29:44;;;;;;;10.75;7.18;;;;;;;8.81;100.00;99323.06;12883720;22;20099;-90
2022/09/26 12:34:55;;;;;;;9.20;7.20;;;;;;;9.66;100.00;99462.97;12889626;22;20172;-89
2022/09/26 12:40:08;;;;;;;11.27;8.45;;;;;;;10.90;100.00;99595.06;12868443;22;20016;-89
2022/09/26 12:45:21;;;;;;;12.60;7.45;;;;;;;10.67;100.00;99558.91;12962268;22;20008;-87
2022/09/26 12:50:40;;;;;;;10.50;7.55;;;;;;;9.84;100.00;99458.75;12913928;22;20004;-88
2022/09/26 12:55:55;;;;;;;12.80;7.85;;;;;;;11.00;100.00;99594.97;12908138;22;20004;-87
2022/09/26 13:01:14;;;;;;;14.93;9.05;;;;;;;10.21;100.00;99479.44;12958535;22;20019;-89
2022/09/26 13:06:17;;;;;;;8.43;7.53;;;;;;;10.78;100.00;99543.09;12939776;22;20399;-89
2022/09/26 13:11:24;;;;;;;12.50;8.23;;;;;;;9.75;100.00;99389.00;12963899;22;20008;-88
2022/09/26 13:16:45;;;;;;;10.25;7.45;;;;;;;9.69;100.00;99384.63;12846523;22;20096;-87
2022/09/26 13:21:58;;;;;;;8.48;6.32;;;;;;;10.39;100.00;99496.38;12760198;22;20009;-87
2022/09/26 13:27:11;;;;;;;7.88;6.45;;;;;;;10.25;100.00;99447.50;12755550;22;20005;-90
2022/09/26 13:32:21;;;;;;;8.68;5.55;;;;;;;10.77;100.00;99504.84;12709259;22;20498;-87
2022/09/26 13:37:36;;;;;;;8.07;5.25;;;;;;;9.75;100.00;99363.44;12834524;22;20017;-87
2022/09/26 13:42:43;;;;;;;7.38;4.53;;;;;;;9.98;100.00;99378.38;12673561;22;20036;-90
2022/09/26 13:47:54;;;;;;;5.57;4.72;;;;;;;10.44;100.00;99422.06;12648564;22;20482;-89
2022/09/26 13:53:17;;;;;;;4.28;3.88;;;;;;;11.46;100.00;99539.41;12754491;22;20021;-89
2022/09/26 13:58:20;;;;;;;6.90;4.85;;;;;;;10.68;100.00;99422.91;12835241;22;20017;-89
2022/09/26 14:03:22;;;;;;;5.07;4.20;;;;;;;11.05;100.00;99465.47;12782759;22;20432;-89
2022/09/26 14:13:47;;;;;;;4.35;3.42;;;;;;;9.72;100.00;99235.69;12779996;22;20018;-86
2022/09/26 14:19:26;;;;;;;3.90;3.47;;;;;;;11.54;100.00;99512.34;12890955;22;20016;-90
2022/09/26 14:24:38;;;;;;;5.25;3.22;;;;;;;11.68;100.00;99499.47;12709670;23;20009;-88
2022/09/26 14:29:38;;;;;;;5.03;2.70;;;;;;;11.17;100.00;99422.94;12838841;22;20008;-87
2022/09/26 14:34:58;;;;;;;3.45;2.95;;;;;;;11.93;100.00;99490.06;12955533;22;20329;-86
2022/09/26 14:39:58;;;;;;;3.30;2.70;;;;;;;11.72;100.00;99442.63;12936160;22;20079;-88
2022/09/26 14:45:01;;;;;;;2.55;2.20;;;;;;;10.20;100.00;99238.50;12960366;22;20047;-88
2022/09/26 14:50:04;;;;;;;2.78;2.50;;;;;;;10.60;100.00;99343.72;12937452;22;20000;-86
2022/09/26 14:55:05;;;;;;;2.63;2.35;;;;;;;9.92;100.00;99207.16;12916580;22;20004;-87
2022/09/26 15:00:34;;;;;;;5.38;2.10;;;;;;;11.74;100.00;99462.47;12891802;22;20090;-86
2022/09/26 15:05:35;;;;;;;3.05;2.10;;;;;;;10.64;100.00;99256.69;12928481;22;20011;-86
2022/09/26 15:10:38;;;;;;;3.63;2.65;;;;;;;10.41;100.00;99252.03;12929712;22;20003;-87
2022/09/26 15:16:11;;;;;;;4.53;2.35;;;;;;;11.83;100.00;99446.06;12865985;22;20307;-87
2022/09/26 15:21:49;;;;;;;3.58;2.95;;;;;;;10.18;100.00;99229.72;12751826;22;20104;-86
2022/09/26 15:26:50;;;;;;;3.40;2.95;;;;;;;10.47;100.00;99250.88;12762135;22;20013;-86
2022/09/26 15:31:51;;;;;;;3.47;2.88;;;;;;;10.61;100.00;99290.34;12802941;22;20010;-86
2022/09/26 15:36:54;;;;;;;3.78;3.13;;;;;;;10.45;100.00;99266.84;12802839;22;20013;-87
2022/09/26 15:47:30;;;;;;;6.28;3.88;;;;;;;11.76;100.00;99412.50;12774085;22;20017;-91
2022/09/26 15:52:34;;;;;;;4.72;3.67;;;;;;;10.29;100.00;99214.78;12706668;22;20029;-90
2022/09/26 15:57:34;;;;;;;5.50;3.90;;;;;;;9.69;100.00;99105.19;12763947;22;20129;-88
2022/09/26 16:02:35;;;;;;;4.65;3.72;;;;;;;11.06;100.00;99372.69;12775674;22;20040;-86
2022/09/26 16:07:40;;;;;;;6.65;3.90;;;;;;;11.08;100.00;99371.25;12837729;22;20328;-85
2022/09/26 16:12:42;;;;;;;5.50;4.10;;;;;;;10.31;100.00;99274.97;12727512;22;20005;-87
2022/09/26 16:17:50;;;;;;;6.60;4.57;;;;;;;10.86;100.00;99318.66;12932236;22;20031;-87
2022/09/26 16:22:58;;;;;;;9.63;5.20;;;;;;;10.09;100.00;99231.47;12882197;22;20015;-88
2022/09/26 16:28:09;;;;;;;7.43;5.47;;;;;;;10.26;100.00;99240.06;12872334;22;20050;-88
2022/09/26 16:33:12;;;;;;;8.73;5.93;;;;;;;11.09;100.00;99372.88;12872443;22;20316;-87
2022/09/26 16:38:25;;;;;;;8.20;5.50;;;;;;;10.98;100.00;99326.50;12961521;22;20016;-87
2022/09/26 16:43:32;;;;;;;7.65;5.75;;;;;;;10.48;100.00;99274.53;12901997;22;20004;-90
2022/09/26 16:48:36;;;;;;;;;;;;;;;11.64;100.00;99418.47;12877537;22;20010;-86
2022/09/26 16:54:45;;;;;;;6.07;5.05;;;;;;;9.93;100.00;99172.25;12746277;22;19908;-88
2022/09/26 17:27:50;;;;;;;12.98;6.78;;;;;;;9.40;100.00;99124.41;11926347;24;20016;-86
2022/09/26 17:33:03;;;;;;;12.13;6.93;;;;;;;10.87;100.00;99367.09;12140156;23;20065;-85
2022/09/26 17:39:19;;;;;;;;;;;;;;;;;;;;;
2022/09/26 17:44:49;;;;;;;10.75;7.80;;;;;;;9.53;100.00;99183.38;12148629;23;20080;-85
2022/09/26 17:49:56;;;;;;;12.80;6.82;;;;;;;10.29;100.00;99290.94;12669993;23;20019;-84
2022/09/26 17:55:40;;;;;;;12.32;6.80;;;;;;;8.95;100.00;99118.25;12898778;22;20007;-86
2022/09/26 18:01:18;;;;;;;11.95;7.30;;;;;;;11.08;100.00;99415.31;12828882;22;20015;-85
2022/09/26 18:06:44;;;;;;;17.05;7.47;;;;;;;9.01;100.00;99111.63;12751660;22;20479;-86
2022/09/26 18:12:03;;;;;;;13.93;7.03;;;;;;;10.08;100.00;99282.06;12686710;22;20016;-85
2022/09/26 18:17:34;;;;;;;10.13;6.43;;;;;;;10.37;100.00;99356.34;12594005;23;20025;-85
2022/09/26 18:23:04;;;;;;;9.93;6.05;;;;;;;10.45;100.00;99387.91;12720569;22;20361;-85
2022/09/26 18:28:37;;;;;;;8.68;5.20;;;;;;;9.46;100.00;99204.84;12849031;22;20031;-84
2022/09/26 18:34:42;;;;;;;13.63;6.85;;;;;;;10.72;100.00;99411.31;12718751;22;20020;-90
2022/09/26 18:39:45;;;;;;;11.93;6.63;;;;;;;9.46;100.00;99266.09;12826910;22;20021;-87
2022/09/26 18:45:06;;;;;;;12.43;6.07;;;;;;;10.45;100.00;99407.19;12735554;22;20016;-87
2022/09/26 19:03:15;;;;;;;13.82;7.57;;;;;;;8.09;100.00;99093.78;12227268;23;20024;-86
2022/09/26 19:08:44;;;;;;;14.60;8.13;;;;;;;8.60;100.00;99171.41;12157808;23;20040;-87
2022/09/26 19:14:13;;;;;;;19.50;10.00;;;;;;;8.54;100.00;99156.09;12168189;23;20433;-86
2022/09/26 20:39:47;;;;;;;44.30;20.03;;;;;;;10.52;100.00;99402.13;12684699;23;20022;-87
2022/09/26 21:10:05;;;;;;;;;;;;;;;;;;;;;
2022/09/26 21:15:58;;;;;;;20.58;5.32;;;;;;;7.85;100.00;99027.88;12653916;22;20020;-88
2022/09/26 21:21:04;;;;;;;15.80;3.22;;;;;;;7.95;100.00;99048.91;12814524;22;20015;-89
2022/09/26 21:26:14;;;;;;;13.20;3.00;;;;;;;8.61;100.00;99195.84;12732546;22;20011;-87
2022/09/26 21:31:52;;;;;;;;;;;;;;;7.97;100.00;99054.94;12762759;22;20081;-88
2022/09/26 21:37:05;;;;;;;21.65;4.53;;;;;;;8.35;100.00;99142.19;12686987;23;19912;-88
2022/09/26 21:42:36;;;;;;;;;;;;;;;;;;;;;
2022/09/26 22:13:11;;;;;;;20.05;5.20;;;;;;;9.53;100.00;99334.47;12284939;23;20478;-92
2022/09/26 22:18:53;;;;;;;15.48;3.85;;;;;;;9.91;100.00;99397.97;12575953;23;20072;-89
2022/09/26 22:24:11;;;;;;;14.88;3.13;;;;;;;7.62;100.00;99075.06;12400679;23;20076;-89
2022/09/26 22:30:44;;;;;;;;;;;;;;;;;;;;;
2022/09/26 22:42:56;;;;;;;20.73;2.63;;;;;;;9.81;100.00;99371.38;12798038;22;20428;-87
2022/09/26 23:00:31;;;;;;;13.10;4.60;;;;;;;7.27;100.00;99011.09;12582875;23;21180;-90
2022/09/26 23:05:32;;;;;;;9.90;3.33;;;;;;;7.79;100.00;99077.47;12778968;23;20005;-90
2022/09/26 23:10:32;;;;;;;13.10;2.97;;;;;;;7.85;100.00;99128.41;12769771;22;20480;-87
2022/09/26 23:15:33;;;;;;;10.98;2.90;;;;;;;9.07;100.00;99288.91;12704667;22;20010;-88
2022/09/26 23:20:39;;;;;;;18.80;4.03;;;;;;;7.95;100.00;99116.59;12800505;22;20112;-90
2022/09/26 23:25:47;;;;;;;15.32;3.50;;;;;;;7.56;100.00;99059.75;12727995;22;20037;-89
2022/09/26 23:30:50;;;;;;;16.02;3.05;;;;;;;9.13;100.00;99350.06;12753110;22;20035;-88
2022/09/26 23:35:56;;;;;;;16.60;3.03;;;;;;;6.98;100.00;98980.81;12806017;22;20008;-88
2022/09/26 23:40:57;;;;;;;15.70;3.20;;;;;;;8.65;100.00;99202.41;12729360;22;20119;-87
2022/09/26 23:46:01;;;;;;;19.17;3.38;;;;;;;9.08;100.00;99297.94;12791936;22;20539;-90
2022/09/26 23:51:02;;;;;;;15.13;3.17;;;;;;;7.82;100.00;99107.88;12818654;22;20453;-89
2022/09/26 23:56:04;;;;;;;8.90;2.30;;;;;;;7.44;100.00;99074.59;12689670;22;21384;-90
